Time;durP1;ratioP1;P1;durP2;ratioP2;P2;SDS_P1;SDS_P2;PMS_P1;PMS_P2;Temp;Humidity;BMP_temperature;BMP_pressure;BME280_temperature;BME280_humidity;BME280_pressure;Samples;Min_cycle;Max_cycle;Signal;HPM_P1;HPM_P2
2024/02/12 00:02:19;;;;;;;6.68;2.70;;;12.40;89.80;;;;;;6308810;22;20426;-79
2024/02/12 00:04:51;;;;;;;6.40;2.60;;;13.40;90.10;;;;;;6308922;22;19994;-79
2024/02/12 00:07:26;;;;;;;4.35;2.60;;;12.40;89.80;;;;;;6309932;22;19992;-80
2024/02/12 00:09:52;;;;;;;6.22;2.85;;;12.40;89.70;;;;;;6336055;22;19984;-81
2024/02/12 00:12:24;;;;;;;5.95;2.75;;;12.40;89.80;;;;;;6306863;22;19998;-79
2024/02/12 00:23:06;;;;;;;6.22;2.40;;;12.40;89.80;;;;;;6325497;22;20014;-81
2024/02/12 00:26:41;;;;;;;5.78;2.50;;;12.40;89.80;;;;;;6241512;23;20056;-80
2024/02/12 00:29:08;;;;;;;5.05;2.28;;;12.30;89.70;;;;;;6244004;22;19991;-79
2024/02/12 00:31:58;;;;;;;5.30;2.58;;;12.40;89.80;;;;;;6304942;22;20012;-79
2024/02/12 00:37:43;;;;;;;5.72;2.35;;;12.30;89.70;;;;;;6336764;22;20007;-80
2024/02/12 00:40:12;;;;;;;4.53;2.40;;;12.40;89.80;;;;;;6310418;22;19999;-80
2024/02/12 00:43:26;;;;;;;4.63;2.42;;;12.40;89.80;;;;;;6304856;22;20016;-79
2024/02/12 00:48:46;;;;;;;4.47;2.40;;;12.40;89.70;;;;;;6336152;22;20031;-80
2024/02/12 00:51:18;;;;;;;5.63;2.30;;;12.40;89.70;;;;;;6335696;22;20017;-81
2024/02/12 00:53:51;;;;;;;5.27;2.30;;;12.50;89.70;;;;;;6285766;22;19990;-81
2024/02/12 00:56:26;;;;;;;4.43;2.22;;;12.40;89.70;;;;;;6313960;22;20043;-79
2024/02/12 00:59:24;;;;;;;8.20;2.53;;;12.30;89.70;;;;;;6310525;22;20047;-79
2024/02/12 01:01:57;;;;;;;5.80;2.72;;;12.40;89.70;;;;;;6310566;22;20071;-81
2024/02/12 01:38:28;;;;;;;3.70;2.03;;;12.40;89.70;;;;;;6305242;22;20049;-80
2024/02/12 01:41:50;;;;;;;4.35;2.35;;;12.40;89.80;;;;;;6227451;22;20015;-81
2024/02/12 02:17:52;;;;;;;4.45;2.30;;;12.40;89.70;;;;;;6335885;22;20007;-80
2024/02/12 02:20:39;;;;;;;4.55;2.15;;;12.30;89.70;;;;;;6335505;22;20007;-79
2024/02/12 02:23:05;;;;;;;3.92;2.05;;;12.40;89.70;;;;;;6334488;22;19995;-79
2024/02/12 02:25:33;;;;;;;4.00;2.20;;;12.40;89.70;;;;;;6305411;22;19994;-80
2024/02/12 02:28:07;;;;;;;4.28;2.13;;;12.40;89.70;;;;;;6310057;22;19991;-79
2024/02/12 02:30:54;;;;;;;3.83;2.08;;;12.40;89.70;;;;;;6258448;22;20014;-79
2024/02/12 02:33:26;;;;;;;4.95;2.10;;;12.40;89.70;;;;;;6301463;22;19997;-79
2024/02/12 02:36:51;;;;;;;5.75;2.20;;;12.40;89.70;;;;;;6335447;22;20007;-79
2024/02/12 02:39:22;;;;;;;4.63;2.35;;;12.40;89.70;;;;;;6308556;22;20006;-79
2024/02/12 02:42:29;;;;;;;3.58;2.00;;;12.20;89.60;;;;;;6330383;22;20027;-79
2024/02/12 02:56:22;;;;;;;4.55;2.30;;;12.40;89.70;;;;;;6329979;22;20011;-79
2024/02/12 02:59:13;;;;;;;4.55;2.20;;;12.40;89.70;;;;;;6309275;22;19992;-80
2024/02/12 03:02:29;;;;;;;4.80;2.40;;;12.40;89.80;;;;;;6335314;22;19991;-80
2024/02/12 03:04:59;;;;;;;5.50;2.35;;;12.40;89.70;;;;;;6334396;22;19991;-80
2024/02/12 03:07:30;;;;;;;5.00;2.42;;;12.30;89.70;;;;;;6308551;22;20013;-80
2024/02/12 03:10:02;;;;;;;4.00;2.08;;;12.30;89.60;;;;;;6325040;22;19983;-80
2024/02/12 03:12:30;;;;;;;4.22;2.20;;;12.50;89.80;;;;;;6307291;22;20051;-79
2024/02/12 03:23:03;;;;;;;3.92;2.17;;;12.30;89.70;;;;;;6334711;22;20010;-79
2024/02/12 03:25:33;;;;;;;4.32;2.10;;;12.40;89.70;;;;;;6308795;22;20043;-79
2024/02/12 03:28:01;;;;;;;3.10;1.80;;;12.40;89.80;;;;;;6335831;22;20274;-79
2024/02/12 03:31:08;;;;;;;4.28;2.10;;;12.40;89.80;;;;;;6190320;22;20065;-79
2024/02/12 03:34:08;;;;;;;3.67;2.05;;;12.40;89.80;;;;;;6224962;22;20020;-79
2024/02/12 03:44:34;;;;;;;4.70;2.45;;;12.30;89.70;;;;;;6302760;22;20054;-80
2024/02/12 04:15:54;;;;;;;4.68;2.15;;;12.30;89.80;;;;;;6324894;22;20019;-80
2024/02/12 04:55:15;;;;;;;3.40;1.80;;;12.30;89.80;;;;;;6297782;22;20018;-81
2024/02/12 04:57:41;;;;;;;3.67;1.98;;;12.30;89.80;;;;;;6267394;22;20008;-78
2024/02/12 05:00:33;;;;;;;3.78;2.00;;;12.40;89.90;;;;;;6273552;22;20086;-80
2024/02/12 05:02:59;;;;;;;3.13;1.92;;;12.40;89.90;;;;;;6269952;22;20035;-81
2024/02/12 05:05:27;;;;;;;4.28;1.95;;;12.40;89.90;;;;;;6277730;22;19984;-80
2024/02/12 05:07:53;;;;;;;3.58;1.90;;;12.40;89.90;;;;;;6277339;22;20004;-78
2024/02/12 05:10:55;;;;;;;3.85;2.08;;;12.40;89.90;;;;;;6280185;22;19991;-82
2024/02/12 05:14:26;;;;;;;13.35;2.80;;;12.30;89.80;;;;;;6171143;23;20013;-82
2024/02/12 05:23:53;;;;;;;3.25;1.77;;;12.30;89.80;;;;;;6123907;23;20007;-81
2024/02/12 05:26:46;;;;;;;4.75;2.33;;;12.30;89.80;;;;;;6184464;23;20020;-79
2024/02/12 05:29:14;;;;;;;3.42;1.92;;;12.30;89.80;;;;;;6213145;23;20009;-80
2024/02/12 05:31:44;;;;;;;3.90;2.15;;;12.40;89.80;;;;;;6199157;22;20010;-79
2024/02/12 05:34:41;;;;;;;3.33;1.90;;;12.40;89.90;;;;;;6303969;22;19995;-80
2024/02/12 05:37:07;;;;;;;3.60;2.03;;;12.40;89.90;;;;;;6279309;22;19984;-79
2024/02/12 05:39:36;;;;;;;3.85;1.98;;;12.30;89.80;;;;;;6278756;22;20016;-79
2024/02/12 05:42:24;;;;;;;3.67;1.90;;;12.30;89.80;;;;;;6253495;22;19988;-79
2024/02/12 05:44:58;;;;;;;3.60;2.00;;;12.40;89.90;;;;;;6273699;22;20003;-80
2024/02/12 05:47:26;;;;;;;3.97;2.08;;;12.30;89.80;;;;;;6223028;22;20088;-79
2024/02/12 05:50:07;;;;;;;3.75;2.08;;;12.30;89.80;;;;;;6248552;22;20012;-79
2024/02/12 05:52:39;;;;;;;2.70;1.80;;;12.30;89.80;;;;;;6247931;22;19996;-80
2024/02/12 05:55:08;;;;;;;3.38;1.90;;;12.30;89.80;;;;;;6221564;22;20031;-78
2024/02/12 05:57:51;;;;;;;4.38;2.10;;;12.30;89.80;;;;;;6273601;22;20004;-78
2024/02/12 06:00:28;;;;;;;4.43;2.03;;;12.30;89.80;;;;;;6269267;22;19996;-80
2024/02/12 06:05:30;;;;;;;3.70;2.08;;;12.30;89.80;;;;;;6335768;22;20062;-79
2024/02/12 06:08:07;;;;;;;3.03;1.88;;;12.40;89.90;;;;;;6285447;22;20021;-79
2024/02/12 06:10:38;;;;;;;3.92;2.00;;;12.30;89.80;;;;;;6336233;22;19999;-79
2024/02/12 06:13:32;;;;;;;3.40;1.98;;;12.20;89.80;;;;;;6308821;22;19987;-80
2024/02/12 06:16:07;;;;;;;4.05;2.25;;;12.30;89.90;;;;;;6309146;22;20047;-80
2024/02/12 06:18:34;;;;;;;3.50;1.83;;;12.30;89.90;;;;;;6309798;22;19998;-79
2024/02/12 06:21:05;;;;;;;3.97;2.10;;;12.40;90.00;;;;;;6276746;22;20011;-80
2024/02/12 06:23:48;;;;;;;3.40;1.80;;;12.20;89.80;;;;;;6306586;22;19988;-79
2024/02/12 06:26:19;;;;;;;3.58;1.98;;;12.40;89.90;;;;;;6335942;22;20014;-79
2024/02/12 06:29:07;;;;;;;3.78;1.92;;;12.30;89.80;;;;;;6284954;22;19988;-79
2024/02/12 06:31:59;;;;;;;2.88;1.63;;;12.30;89.90;;;;;;6325954;22;19995;-79
2024/02/12 06:34:49;;;;;;;3.42;2.15;;;12.30;89.80;;;;;;6303692;22;19995;-78
2024/02/12 06:38:05;;;;;;;3.17;1.92;;;12.40;89.90;;;;;;6222331;22;19996;-79
2024/02/12 06:40:56;;;;;;;4.20;2.15;;;12.30;89.90;;;;;;6241443;22;20001;-79
2024/02/12 06:43:23;;;;;;;3.58;2.15;;;12.30;89.90;;;;;;6217652;22;20014;-79
2024/02/12 06:45:54;;;;;;;3.35;1.80;;;12.30;89.80;;;;;;6235176;22;19996;-79
2024/02/12 06:48:55;;;;;;;4.22;2.17;;;12.30;89.90;;;;;;6217932;22;19992;-81
2024/02/12 06:51:53;;;;;;;2.88;1.77;;;12.30;89.90;;;;;;6217227;22;20016;-79
2024/02/12 06:54:24;;;;;;;3.90;2.00;;;12.30;89.90;;;;;;6214122;22;20004;-79
2024/02/12 06:56:54;;;;;;;3.28;1.90;;;11.60;89.50;;;;;;6240766;22;19993;-79
2024/02/12 06:59:24;;;;;;;4.63;2.03;;;12.30;89.90;;;;;;6234582;22;20000;-79
2024/02/12 07:05:34;;;;;;;3.53;1.90;;;12.20;89.80;;;;;;6244000;22;19995;-80
2024/02/12 07:08:27;;;;;;;3.30;2.00;;;12.30;89.80;;;;;;6302881;22;19988;-79
2024/02/12 07:11:28;;;;;;;4.05;2.10;;;12.30;89.80;;;;;;6300723;22;20000;-80
2024/02/12 07:13:57;;;;;;;4.32;2.30;;;12.30;89.90;;;;;;6277724;22;20000;-79
2024/02/12 07:16:48;;;;;;;3.13;1.98;;;12.40;90.00;;;;;;6302498;22;20119;-79
2024/02/12 07:19:16;;;;;;;4.03;2.05;;;12.30;89.80;;;;;;6277772;22;19992;-78
2024/02/12 07:22:03;;;;;;;3.35;1.85;;;12.30;90.00;;;;;;6259649;22;19987;-79
2024/02/12 07:24:31;;;;;;;4.57;2.22;;;12.40;89.90;;;;;;6309082;22;19994;-81
2024/02/12 07:27:00;;;;;;;4.00;2.00;;;12.30;89.80;;;;;;6309214;22;20025;-79
2024/02/12 07:32:32;;;;;;;3.72;2.10;;;12.40;89.90;;;;;;6273007;22;20016;-78
2024/02/12 07:34:59;;;;;;;4.47;2.20;;;12.30;89.80;;;;;;6298788;22;20022;-80
2024/02/12 07:37:28;;;;;;;4.28;2.10;;;12.40;89.90;;;;;;6285048;22;20002;-79
2024/02/12 07:39:55;;;;;;;3.60;1.90;;;12.30;89.80;;;;;;6310635;22;20023;-80
2024/02/12 07:42:26;;;;;;;4.30;2.25;;;12.40;89.90;;;;;;6285645;22;20029;-79
2024/02/12 07:45:19;;;;;;;3.97;1.95;;;12.50;90.00;;;;;;6311273;22;20017;-79
2024/02/12 07:47:45;;;;;;;4.10;2.20;;;12.30;89.90;;;;;;6285157;22;20003;-80
2024/02/12 07:50:14;;;;;;;3.88;2.10;;;12.30;89.90;;;;;;6311182;22;19994;-79
2024/02/12 07:53:29;;;;;;;3.30;1.80;;;12.30;89.90;;;;;;6274904;22;19995;-79
2024/02/12 07:55:56;;;;;;;3.95;2.05;;;12.40;89.90;;;;;;6225046;22;20004;-81
2024/02/12 07:58:27;;;;;;;4.68;2.50;;;12.30;89.80;;;;;;6244351;23;19997;-79
2024/02/12 08:01:00;;;;;;;4.25;2.40;;;12.30;89.80;;;;;;6269609;22;20021;-79
2024/02/12 08:03:50;;;;;;;3.78;2.25;;;12.30;89.80;;;;;;6337204;22;19994;-80
2024/02/12 08:06:20;;;;;;;4.10;2.10;;;12.40;89.90;;;;;;6337793;22;19991;-80
2024/02/12 08:09:10;;;;;;;4.15;2.15;;;12.30;89.80;;;;;;6336834;22;19994;-80
2024/02/12 08:12:05;;;;;;;4.10;2.10;;;12.30;89.80;;;;;;6336487;22;20042;-78
2024/02/12 08:14:36;;;;;;;3.47;1.90;;;12.50;89.90;;;;;;6337350;22;20002;-79
2024/02/12 08:17:29;;;;;;;3.95;2.10;;;12.40;89.90;;;;;;6313860;22;20007;-79
2024/02/12 08:20:03;;;;;;;3.65;2.20;;;12.40;89.90;;;;;;6310867;22;20006;-79
2024/02/12 08:23:00;;;;;;;3.85;2.10;;;12.30;89.80;;;;;;6315195;22;19999;-79
2024/02/12 08:25:27;;;;;;;4.55;2.30;;;12.30;89.80;;;;;;6310866;22;20042;-79
2024/02/12 08:28:15;;;;;;;4.05;2.17;;;12.40;89.90;;;;;;6223643;23;20027;-80
2024/02/12 08:31:03;;;;;;;4.40;2.30;;;12.40;89.90;;;;;;6322510;22;20013;-79
2024/02/12 08:34:17;;;;;;;3.90;2.38;;;12.30;89.80;;;;;;6305331;22;20018;-80
2024/02/12 08:37:03;;;;;;;4.18;2.17;;;12.30;89.80;;;;;;6334854;22;19992;-79
2024/02/12 08:39:56;;;;;;;4.25;2.20;;;12.30;89.80;;;;;;6274885;22;20057;-78
2024/02/12 08:42:27;;;;;;;4.38;2.22;;;12.40;90.10;;;;;;6244852;22;19988;-80
2024/02/12 08:45:25;;;;;;;3.97;2.20;;;12.40;89.90;;;;;;6249083;22;19999;-79
2024/02/12 08:47:52;;;;;;;3.95;2.08;;;12.30;89.80;;;;;;6248579;22;19984;-79
2024/02/12 08:50:37;;;;;;;3.85;2.08;;;12.30;89.80;;;;;;6223897;22;19988;-79
2024/02/12 08:53:06;;;;;;;3.65;2.15;;;12.60;90.00;;;;;;6224405;22;19985;-80
2024/02/12 08:55:42;;;;;;;4.25;2.33;;;12.30;89.80;;;;;;6248427;22;19992;-79
2024/02/12 08:58:52;;;;;;;5.15;2.42;;;12.40;89.80;;;;;;6243890;22;19988;-79
2024/02/12 09:01:21;;;;;;;4.03;2.30;;;12.50;89.90;;;;;;6245041;22;19996;-80
2024/02/12 09:04:00;;;;;;;3.72;2.10;;;12.20;89.70;;;;;;6248394;22;20003;-80
2024/02/12 09:06:29;;;;;;;6.43;2.60;;;12.30;89.80;;;;;;6274532;22;20012;-80
2024/02/12 09:09:04;;;;;;;3.70;2.10;;;12.40;89.80;;;;;;6271510;22;20023;-79
2024/02/12 09:11:56;;;;;;;4.85;2.45;;;12.30;89.70;;;;;;6329424;22;19987;-79
2024/02/12 09:15:25;;;;;;;4.47;2.35;;;12.40;89.80;;;;;;6315196;22;20021;-80
2024/02/12 09:18:18;;;;;;;4.43;2.35;;;12.40;89.80;;;;;;6310536;22;20002;-79
2024/02/12 09:20:46;;;;;;;4.68;2.42;;;12.40;89.80;;;;;;6337127;22;20059;-80
2024/02/12 09:23:41;;;;;;;4.30;2.33;;;12.40;89.80;;;;;;6310848;22;20018;-81
2024/02/12 09:26:41;;;;;;;5.20;2.70;;;12.40;89.80;;;;;;6310715;22;20002;-80
2024/02/12 09:29:34;;;;;;;4.50;2.42;;;12.40;89.70;;;;;;6336815;22;20007;-79
2024/02/12 09:33:00;;;;;;;4.35;2.25;;;12.40;89.70;;;;;;6325588;22;20050;-79
2024/02/12 09:36:06;;;;;;;4.70;2.38;;;12.40;89.70;;;;;;6273058;22;20003;-81
2024/02/12 09:38:37;;;;;;;4.90;2.50;;;12.30;89.60;;;;;;6274015;22;19999;-79
2024/02/12 09:41:20;;;;;;;4.47;2.35;;;12.40;89.70;;;;;;6223238;22;20294;-80
2024/02/12 09:44:34;;;;;;;4.28;2.30;;;12.40;89.70;;;;;;6257793;22;19989;-80
2024/02/12 09:47:05;;;;;;;4.82;2.70;;;12.40;89.70;;;;;;6248726;22;19984;-79
2024/02/12 09:49:55;;;;;;;4.35;2.35;;;12.40;89.50;;;;;;6248332;22;20636;-79
2024/02/12 09:52:58;;;;;;;4.60;2.50;;;12.50;89.50;;;;;;6248494;22;19992;-79
2024/02/12 09:55:36;;;;;;;4.68;2.60;;;12.50;89.40;;;;;;6286109;22;19991;-80
2024/02/12 09:58:24;;;;;;;4.72;2.67;;;12.50;89.30;;;;;;6285968;22;20043;-80
2024/02/12 10:01:02;;;;;;;4.43;2.33;;;13.30;89.60;;;;;;6309208;22;20020;-80
2024/02/12 10:04:20;;;;;;;4.47;2.47;;;12.60;89.00;;;;;;6336680;22;19983;-79
2024/02/12 10:06:58;;;;;;;5.28;2.80;;;12.60;88.90;;;;;;6335852;22;19999;-80
2024/02/12 10:09:27;;;;;;;4.80;2.55;;;12.70;88.80;;;;;;6309472;22;20015;-80
2024/02/12 10:12:21;;;;;;;4.20;2.30;;;12.80;88.70;;;;;;6335433;22;19987;-80
2024/02/12 10:15:02;;;;;;;4.43;2.53;;;12.80;88.60;;;;;;6304998;22;19994;-80
2024/02/12 10:17:32;;;;;;;5.13;2.70;;;12.80;88.50;;;;;;6308844;22;20018;-80
2024/02/12 10:20:06;;;;;;;4.22;2.45;;;12.80;88.50;;;;;;6308938;22;20067;-79
2024/02/12 10:22:40;;;;;;;5.28;2.47;;;12.80;88.50;;;;;;6283288;22;19990;-81
2024/02/12 10:25:09;;;;;;;4.88;2.53;;;12.80;88.50;;;;;;6309101;22;19991;-80
2024/02/12 10:27:51;;;;;;;4.47;2.53;;;12.70;88.50;;;;;;6336081;22;20013;-79
2024/02/12 10:30:17;;;;;;;5.10;2.60;;;12.70;88.50;;;;;;6303442;22;20011;-80
2024/02/12 10:33:00;;;;;;;5.00;2.60;;;12.70;88.60;;;;;;6284221;22;20007;-80
2024/02/12 10:35:57;;;;;;;4.97;2.65;;;12.70;88.60;;;;;;6309813;22;19996;-79
2024/02/12 10:38:59;;;;;;;4.82;2.60;;;12.80;88.70;;;;;;6335339;22;20055;-79
2024/02/12 10:41:47;;;;;;;5.43;2.85;;;13.90;89.40;;;;;;6309992;22;19999;-80
2024/02/12 10:45:13;;;;;;;5.53;2.95;;;12.70;88.70;;;;;;6332868;22;20022;-79
2024/02/12 10:51:28;;;;;;;5.45;2.88;;;12.70;88.70;;;;;;6285433;22;19998;-79
2024/02/12 10:54:30;;;;;;;5.05;2.80;;;12.70;88.60;;;;;;6327908;22;19984;-79
2024/02/12 10:57:22;;;;;;;4.95;2.67;;;12.80;88.50;;;;;;6309559;22;20010;-79
2024/02/12 11:00:26;;;;;;;5.07;2.80;;;12.80;88.50;;;;;;6336100;22;20015;-79
2024/02/12 11:02:56;;;;;;;4.72;2.60;;;12.70;88.50;;;;;;6309660;22;19992;-79
2024/02/12 11:05:24;;;;;;;5.53;2.92;;;12.70;88.50;;;;;;6283835;22;20074;-79
2024/02/12 11:11:48;;;;;;;5.18;2.95;;;12.80;88.60;;;;;;6273533;22;20007;-79
2024/02/12 11:14:56;;;;;;;6.10;3.00;;;12.80;88.60;;;;;;6272997;22;19992;-79
2024/02/12 11:17:32;;;;;;;4.35;2.60;;;12.70;88.70;;;;;;6273281;22;19984;-79
2024/02/12 11:20:57;;;;;;;4.57;2.60;;;12.70;88.70;;;;;;6273454;22;20007;-79
2024/02/12 11:23:42;;;;;;;5.38;3.10;;;12.80;88.80;;;;;;6212458;23;20017;-79
2024/02/12 11:26:22;;;;;;;5.28;2.90;;;12.70;88.90;;;;;;6187369;23;19993;-79
2024/02/12 11:28:57;;;;;;;5.18;2.70;;;12.90;89.00;;;;;;6267543;22;20064;-79
2024/02/12 11:32:00;;;;;;;4.50;2.80;;;12.70;88.90;;;;;;6249131;22;19989;-79
2024/02/12 11:34:49;;;;;;;5.35;2.78;;;12.60;88.90;;;;;;6273226;22;19985;-80
2024/02/12 11:37:27;;;;;;;4.90;2.63;;;12.60;88.90;;;;;;6186859;23;19986;-78
2024/02/12 11:40:25;;;;;;;4.85;2.70;;;12.70;89.00;;;;;;6208277;22;20008;-80
2024/02/12 11:42:54;;;;;;;5.00;2.90;;;12.50;88.90;;;;;;6333777;22;20445;-79
2024/02/12 11:45:24;;;;;;;4.90;2.80;;;12.60;89.10;;;;;;6335296;22;20025;-80
2024/02/12 11:48:11;;;;;;;5.22;2.95;;;12.60;89.00;;;;;;6309360;22;19987;-81
2024/02/12 11:50:38;;;;;;;5.38;3.08;;;12.60;89.10;;;;;;6335960;22;20084;-78
2024/02/12 11:53:06;;;;;;;5.40;2.95;;;12.60;89.10;;;;;;6309289;22;20012;-79
2024/02/12 11:55:33;;;;;;;6.03;3.00;;;12.60;89.10;;;;;;6309063;22;20015;-81
2024/02/12 11:58:31;;;;;;;5.38;2.92;;;12.60;89.10;;;;;;6336029;22;19994;-81
2024/02/12 12:01:01;;;;;;;4.93;2.95;;;12.60;89.10;;;;;;6310020;22;20003;-80
2024/02/12 12:03:56;;;;;;;5.60;3.22;;;12.60;89.10;;;;;;6335692;22;19988;-79
2024/02/12 12:06:22;;;;;;;5.18;2.95;;;12.60;89.10;;;;;;6335737;22;20014;-79
2024/02/12 12:09:33;;;;;;;6.40;3.50;;;12.60;89.20;;;;;;6242540;23;20016;-79
2024/02/12 12:12:01;;;;;;;5.68;2.95;;;12.60;89.10;;;;;;6217381;23;20005;-80
2024/02/12 12:14:43;;;;;;;5.60;3.10;;;12.70;89.20;;;;;;6334632;22;19999;-80
2024/02/12 12:17:23;;;;;;;5.20;2.80;;;12.60;89.20;;;;;;6258601;22;19988;-78
2024/02/12 12:22:57;;;;;;;5.78;3.20;;;12.50;89.20;;;;;;6274938;22;19999;-79
2024/02/12 12:25:26;;;;;;;5.50;2.88;;;13.40;89.70;;;;;;6224194;22;20052;-80
2024/02/12 12:27:57;;;;;;;6.13;3.50;;;12.60;89.30;;;;;;6275159;22;20011;-80
2024/02/12 12:31:02;;;;;;;5.22;2.80;;;12.60;89.30;;;;;;6270865;22;19999;-79
2024/02/12 12:36:59;;;;;;;5.95;3.08;;;12.50;89.30;;;;;;6260107;22;20076;-80
2024/02/12 12:39:46;;;;;;;6.13;3.17;;;12.50;89.30;;;;;;6337210;22;19999;-79
2024/02/12 12:42:31;;;;;;;5.65;3.30;;;12.60;89.40;;;;;;6274488;22;20016;-79
2024/02/12 12:45:01;;;;;;;5.55;3.20;;;12.60;89.40;;;;;;6274058;22;20080;-80
2024/02/12 12:48:04;;;;;;;5.05;2.80;;;12.50;89.30;;;;;;6248904;22;20004;-79
2024/02/12 12:51:13;;;;;;;5.78;3.28;;;12.50;89.30;;;;;;6253314;22;19996;-80
2024/02/12 12:53:43;;;;;;;5.55;2.90;;;12.50;89.30;;;;;;6248712;22;20015;-79
2024/02/12 12:56:12;;;;;;;5.57;3.15;;;12.50;89.30;;;;;;6273777;22;20059;-79
2024/02/12 12:59:05;;;;;;;5.72;3.17;;;12.50;89.30;;;;;;6243641;22;20009;-79
2024/02/12 13:02:03;;;;;;;6.88;3.13;;;12.50;89.30;;;;;;6154522;23;20006;-80
2024/02/12 13:04:52;;;;;;;5.60;2.88;;;12.40;89.30;;;;;;6243923;22;19989;-80
2024/02/12 13:07:27;;;;;;;5.88;2.80;;;12.50;89.30;;;;;;6223959;22;20019;-80
2024/02/12 13:09:53;;;;;;;5.40;2.92;;;12.50;89.30;;;;;;6274762;22;20008;-79
2024/02/12 13:12:43;;;;;;;5.20;2.75;;;12.50;89.30;;;;;;6274338;22;20016;-79
2024/02/12 13:15:23;;;;;;;5.32;3.15;;;12.50;89.30;;;;;;6274700;22;20061;-79
2024/02/12 13:17:56;;;;;;;4.88;2.67;;;12.50;89.40;;;;;;6274005;22;19985;-80
2024/02/12 13:20:45;;;;;;;5.70;3.00;;;12.60;89.40;;;;;;6310427;22;20022;-79
2024/02/12 13:23:32;;;;;;;5.30;2.90;;;12.50;89.30;;;;;;6336767;22;20011;-79
2024/02/12 13:26:22;;;;;;;4.57;2.85;;;12.60;89.40;;;;;;6310399;22;20050;-78
2024/02/12 13:29:06;;;;;;;5.00;2.72;;;12.50;89.40;;;;;;6303641;22;19987;-78
2024/02/12 13:31:48;;;;;;;5.35;3.00;;;12.50;89.50;;;;;;6335946;22;20015;-80
2024/02/12 13:34:14;;;;;;;5.25;2.85;;;12.50;89.40;;;;;;6336552;22;20042;-80
2024/02/12 13:36:42;;;;;;;5.50;2.72;;;12.50;89.20;;;;;;6310667;22;19990;-81
2024/02/12 13:39:30;;;;;;;5.03;2.78;;;12.50;89.50;;;;;;6335620;22;20047;-82
2024/02/12 13:42:23;;;;;;;5.20;2.60;;;12.50;89.40;;;;;;6310671;22;20010;-79
2024/02/12 13:44:52;;;;;;;5.47;2.88;;;13.40;89.90;;;;;;6299587;22;19983;-79
2024/02/12 13:47:19;;;;;;;5.57;2.90;;;13.30;89.90;;;;;;6336450;22;19992;-80
2024/02/12 13:49:47;;;;;;;5.13;2.97;;;12.50;89.40;;;;;;6310996;22;19988;-80
2024/02/12 13:52:33;;;;;;;4.95;2.60;;;12.50;89.50;;;;;;6274047;22;20033;-80
2024/02/12 13:55:19;;;;;;;5.85;3.35;;;12.50;89.40;;;;;;6273760;22;19992;-80
2024/02/12 13:58:15;;;;;;;4.53;2.53;;;12.50;89.40;;;;;;6223527;22;20051;-79
2024/02/12 14:00:43;;;;;;;5.07;2.88;;;12.50;89.40;;;;;;6248282;22;20039;-79
2024/02/12 14:03:28;;;;;;;4.97;2.65;;;12.50;89.40;;;;;;6226593;22;20026;-79
2024/02/12 14:06:16;;;;;;;5.22;2.80;;;12.50;89.50;;;;;;6258888;22;20004;-83
2024/02/12 14:09:07;;;;;;;5.10;2.78;;;12.50;89.50;;;;;;6315099;22;20042;-80
2024/02/12 14:11:53;;;;;;;5.30;2.85;;;12.50;89.50;;;;;;6312764;22;20044;-81
2024/02/12 14:14:19;;;;;;;5.15;2.92;;;12.50;89.40;;;;;;6336548;22;19983;-78
2024/02/12 14:16:48;;;;;;;5.03;2.63;;;12.50;89.50;;;;;;6309156;22;20011;-81
2024/02/12 14:19:20;;;;;;;5.40;2.75;;;12.60;89.50;;;;;;6336699;22;19989;-79
2024/02/12 14:21:46;;;;;;;4.32;2.15;;;12.20;89.20;;;;;;6310079;22;20058;-81
2024/02/12 14:24:15;;;;;;;4.65;2.67;;;12.50;89.40;;;;;;6336152;22;19983;-79
2024/02/12 14:26:45;;;;;;;5.55;3.03;;;12.50;89.30;;;;;;6336490;22;19988;-79
2024/02/12 14:29:31;;;;;;;4.85;2.58;;;12.60;89.40;;;;;;6314674;22;20014;-80
2024/02/12 14:32:00;;;;;;;4.43;2.35;;;12.50;89.30;;;;;;6336755;22;20007;-80
2024/02/12 14:34:27;;;;;;;5.18;2.85;;;12.60;89.40;;;;;;6336653;22;20011;-80
2024/02/12 14:37:13;;;;;;;5.07;2.85;;;12.50;89.30;;;;;;6310430;22;20011;-80
2024/02/12 14:39:42;;;;;;;5.50;3.10;;;12.50;89.30;;;;;;6336342;22;19999;-80
2024/02/12 14:42:16;;;;;;;4.88;2.83;;;12.60;89.40;;;;;;6309152;22;20010;-79
2024/02/12 14:44:52;;;;;;;5.13;2.72;;;12.40;89.30;;;;;;6336166;22;20013;-81
2024/02/12 14:47:18;;;;;;;4.25;2.42;;;12.60;89.40;;;;;;6310040;22;19983;-80
2024/02/12 14:49:48;;;;;;;5.05;3.10;;;12.50;89.30;;;;;;6310317;22;20033;-79
2024/02/12 14:52:19;;;;;;;4.90;2.80;;;12.50;89.30;;;;;;6309309;22;19987;-79
2024/02/12 14:54:45;;;;;;;4.65;2.70;;;12.60;89.40;;;;;;6336433;22;20017;-80
2024/02/12 14:57:32;;;;;;;5.18;2.78;;;12.50;89.40;;;;;;6273162;22;19988;-80
2024/02/12 15:00:33;;;;;;;5.45;2.97;;;12.60;89.50;;;;;;6248184;22;20023;-80
2024/02/12 15:06:26;;;;;;;4.72;2.60;;;12.50;89.40;;;;;;6227641;22;20038;-80
2024/02/12 15:08:55;;;;;;;5.22;2.97;;;12.50;89.40;;;;;;6242620;22;20014;-80
2024/02/12 15:11:33;;;;;;;4.95;2.70;;;12.50;89.40;;;;;;6273022;22;19992;-79
2024/02/12 15:14:12;;;;;;;5.20;2.83;;;12.50;89.40;;;;;;6247638;22;19996;-80
2024/02/12 15:16:41;;;;;;;4.72;2.50;;;12.60;89.50;;;;;;6270161;22;20115;-80
2024/02/12 15:19:47;;;;;;;4.95;2.72;;;12.50;89.40;;;;;;6271659;22;19992;-80
2024/02/12 15:22:22;;;;;;;5.40;2.72;;;12.50;89.50;;;;;;6247824;22;19992;-79
2024/02/12 15:24:52;;;;;;;5.20;2.65;;;12.50;89.50;;;;;;6224917;22;19988;-81
2024/02/12 15:28:11;;;;;;;4.75;2.50;;;12.50;89.50;;;;;;6336357;22;19995;-79
2024/02/12 15:30:52;;;;;;;4.87;2.67;;;12.60;89.60;;;;;;6300825;22;20007;-79
2024/02/12 15:33:24;;;;;;;5.00;3.00;;;12.50;89.50;;;;;;6335967;22;19990;-79
2024/02/12 15:36:08;;;;;;;4.60;2.55;;;12.50;89.50;;;;;;6281042;22;20021;-80
2024/02/12 15:39:23;;;;;;;4.50;2.47;;;12.50;89.50;;;;;;6273711;22;19992;-80
2024/02/12 15:41:55;;;;;;;4.72;2.70;;;12.50;89.40;;;;;;6222974;22;20023;-79
2024/02/12 15:44:22;;;;;;;5.05;2.75;;;12.50;89.40;;;;;;6309751;22;19991;-79
2024/02/12 15:46:51;;;;;;;5.72;3.00;;;12.60;89.50;;;;;;6272208;22;20004;-79
2024/02/12 15:49:32;;;;;;;4.97;2.75;;;12.50;89.50;;;;;;6273181;22;20008;-80
2024/02/12 15:52:16;;;;;;;4.57;2.58;;;12.50;89.50;;;;;;6278140;22;20007;-79
2024/02/12 15:54:50;;;;;;;4.63;2.65;;;12.50;89.40;;;;;;6336194;22;19994;-79
2024/02/12 15:57:44;;;;;;;4.63;2.65;;;12.50;89.50;;;;;;6337186;22;19995;-81
2024/02/12 16:00:44;;;;;;;5.38;2.88;;;12.40;89.40;;;;;;6311241;22;20044;-80
2024/02/12 16:03:03;;;;;;;4.70;2.60;;;12.50;89.50;;;;;;6275548;22;19989;-80
2024/02/12 16:06:06;;;;;;;5.47;2.97;;;12.50;89.40;;;;;;6334159;22;20015;-80
2024/02/12 16:08:54;;;;;;;5.45;2.83;;;12.50;89.40;;;;;;6311459;22;19984;-80
2024/02/12 16:11:46;;;;;;;5.60;2.97;;;12.50;89.40;;;;;;6333511;22;19997;-80
2024/02/12 16:14:47;;;;;;;5.40;2.80;;;12.60;89.40;;;;;;6311003;22;20002;-80
2024/02/12 16:17:17;;;;;;;5.60;3.00;;;12.50;89.40;;;;;;6311137;22;20018;-81
2024/02/12 16:19:44;;;;;;;4.97;2.80;;;12.50;89.40;;;;;;6338112;22;20010;-79
2024/02/12 16:22:33;;;;;;;5.65;2.90;;;12.50;89.40;;;;;;6274559;22;19995;-80
2024/02/12 16:25:02;;;;;;;4.90;2.90;;;12.40;89.30;;;;;;6224227;22;20016;-80
2024/02/12 16:27:49;;;;;;;5.35;2.95;;;12.40;89.30;;;;;;6243936;22;20011;-79
2024/02/12 16:30:42;;;;;;;5.35;3.00;;;12.40;89.30;;;;;;6244530;22;20012;-80
2024/02/12 16:33:22;;;;;;;5.20;2.90;;;12.40;89.40;;;;;;6233991;22;19989;-80
2024/02/12 16:35:53;;;;;;;4.80;2.88;;;12.50;89.50;;;;;;6219214;22;19999;-80
2024/02/12 16:38:40;;;;;;;5.20;2.67;;;12.50;89.50;;;;;;6214040;22;20025;-81
2024/02/12 16:41:13;;;;;;;5.60;3.22;;;13.00;89.70;;;;;;6165141;22;20001;-81
2024/02/12 16:43:39;;;;;;;5.25;2.95;;;12.40;89.40;;;;;;6190639;22;19989;-80
2024/02/12 16:46:33;;;;;;;4.20;2.40;;;12.50;89.50;;;;;;6231456;22;19989;-80
2024/02/12 16:49:30;;;;;;;5.60;3.03;;;12.40;89.40;;;;;;6224202;22;19989;-81
2024/02/12 16:52:00;;;;;;;5.38;3.05;;;12.40;89.40;;;;;;6309919;22;19983;-80
2024/02/12 16:54:27;;;;;;;4.85;2.90;;;12.40;89.50;;;;;;6310786;22;19987;-80
2024/02/12 16:56:58;;;;;;;5.32;3.20;;;12.50;89.50;;;;;;6235328;22;19983;-80
2024/02/12 16:59:30;;;;;;;;;;;12.40;89.50;;;;;;6334320;22;20011;-81
2024/02/12 17:01:56;;;;;;;4.68;2.70;;;13.00;89.80;;;;;;6310876;22;19929;-81
2024/02/12 17:04:23;;;;;;;5.65;3.15;;;12.50;89.50;;;;;;6311326;22;19987;-80
2024/02/12 17:07:10;;;;;;;5.50;3.13;;;12.40;89.50;;;;;;6294210;22;19991;-79
2024/02/12 17:10:00;;;;;;;5.55;3.00;;;12.50;89.50;;;;;;6301301;22;20007;-79
2024/02/12 17:12:26;;;;;;;5.40;2.92;;;12.40;89.40;;;;;;6304137;22;19995;-79
2024/02/12 17:14:53;;;;;;;5.38;2.80;;;12.50;89.50;;;;;;6308414;22;20052;-79
2024/02/12 17:17:19;;;;;;;5.40;3.17;;;12.50;89.50;;;;;;6306508;22;20003;-80
2024/02/12 17:19:45;;;;;;;5.35;3.03;;;12.40;89.40;;;;;;6308268;22;20022;-79
2024/02/12 17:22:11;;;;;;;5.93;3.40;;;12.40;89.30;;;;;;6330284;22;20373;-79
2024/02/12 17:24:37;;;;;;;6.05;3.50;;;12.40;89.40;;;;;;6305258;22;20007;-78
2024/02/12 17:27:03;;;;;;;7.13;3.95;;;12.40;89.30;;;;;;6308956;22;19990;-80
2024/02/12 17:29:30;;;;;;;8.45;4.10;;;12.40;89.30;;;;;;6307931;22;19992;-81